Yucaipa, CA (92399)

2:13 AM PDT on May 07, 2015 (GMT -0700)
Panorama Dr. | | Change Station
CLOSE
Current Station
Personal Weather Station
Location: Yucaipa, CA
Elevation: 3114 ft
Nearby Weather Stations

Elev 3114 ft 34.04 °N, 117.02 °W | Updated 5 minutes ago

Partly Cloudy
Partly Cloudy
46.2 °F
Feels Like 46 °F
N
0.0
Wind Variable Wind from SE
Gusts 3.0 mph

Today
High -- | Low -- °F
--% Chance of Precip.
Yesterday
High -- | Low -- °F
Precip. -- in
5:53 AM 7:36 PM
Waning Gibbous, 89% visible
Pressure 29.86 in
Visibility 10.0 miles
Clouds Scattered Clouds 1500 ft
Overcast 2400 ft
Windchill 46 °F
Dew Point 44 °F
Humidity 93%
Rainfall 0.00 in
Snow Depth Not available.
UV 0 out of 12
Pollen 5.60 out of 12
Air Quality Not available.
Flu Activity Sporadic
SPECI KRIV 070833Z AUTO 33006KT 10SM SCT015 OVC024 13/09 A2986 RMK AO2 CIG 014V025 CIG 018 RWY14

More Conditions Fewer Conditions

Pressure 29.86 in
Visibility 10.0 miles
Clouds Scattered Clouds 1500 ft
Overcast 2400 ft
Windchill 46 °F
Dew Point 44 °F
Humidity 93%
Rainfall 0.00 in
Snow Depth Not available.
UV 0 out of 12
Pollen 5.60 out of 12
Air Quality Not available.
Flu Activity Sporadic
SPECI KRIV 070833Z AUTO 33006KT 10SM SCT015 OVC024 13/09 A2986 RMK AO2 CIG 014V025 CIG 018 RWY14

More Conditions Fewer Conditions

10-Day Weather Forecast

Almanac

Astronomy

May. 07, 2015 Rise Set
Actual Time
Civil Twilight
Nautical Twilight
Astronomical Twilight
Moon
Length of Visible Light
Length of Day
Tomorrow will be .
, % of the Moon is Illuminated

Today's Extremes

State Highs State Lows

Community

WunderPhotos

Upload Photos

1,819,133 photos uploaded!

WunderBlogs® & News

Nearby

Air Quality

  Air Quality AQ Index Pollutant
Not available.

Snow Depth

Station Depth Elevation

Earthquake Activity

City Distance Mag. Time & Date
Minimum magnitude displayed is 2.5.

Coastal Water Temperatures

Place Temperature

Stations

Nearby Weather Stations

Station Location Temp. Windchill Dew Point Humidity Wind Precip. Elev Updated Type